Welkom, South Africa
Current Conditions -  °F | °C
As of 3:00 AM on Monday 22 Dec 2014 (Local Time) from FABL Reporting Station
NA  
Wind Chill: 64°   Ceiling: NA
Heat Index: 64°   Visibility: 6mi
Dew Point: 50°   Wind: 2mph
Humidity: 59%   Direction: NA
Pressure: 30.03"   Gusts: NA
Location:  27.97°S, 26.73°E
Report Text: FABL 220100Z AUTO VRB02KT 9999 ////// 18/10 Q1017
Loading
Personal Weather Stations






























Interactive Weather Map New forecast layout! Learn more

10-Day Weather Forecast

Advertisements
Track Severe Weather on mobile